createdAt,value
2022-10-19T00:01:39.529Z,7.00
2022-10-19T00:04:08.705Z,7.00
2022-10-19T00:06:36.941Z,7.00
2022-10-19T00:09:12.698Z,7.00
2022-10-19T00:11:41.575Z,7.00
2022-10-19T00:14:10.795Z,6.90
2022-10-19T00:16:38.261Z,6.90
2022-10-19T00:19:07.570Z,6.90
2022-10-19T00:21:34.737Z,6.90
2022-10-19T00:24:01.617Z,6.80
2022-10-19T00:26:28.459Z,6.80
2022-10-19T00:28:55.762Z,6.80
2022-10-19T00:31:22.696Z,6.70
2022-10-19T00:33:49.543Z,6.60
2022-10-19T00:36:18.095Z,6.60
2022-10-19T00:38:44.930Z,6.70
2022-10-19T00:41:11.796Z,6.70
2022-10-19T00:43:57.648Z,6.70
2022-10-19T00:46:25.079Z,6.70
2022-10-19T00:48:53.209Z,6.70
2022-10-19T00:51:20.374Z,6.60
2022-10-19T00:53:47.195Z,6.50
2022-10-19T00:56:15.315Z,6.50
2022-10-19T00:58:42.793Z,6.60
2022-10-19T01:01:11.265Z,6.60
2022-10-19T01:03:38.403Z,6.60
2022-10-19T01:06:06.111Z,6.50
2022-10-19T01:08:32.904Z,6.40
2022-10-19T01:11:11.664Z,6.40
2022-10-19T01:13:44.033Z,6.30
2022-10-19T01:16:31.183Z,6.30
2022-10-19T01:19:17.001Z,6.30
2022-10-19T01:21:53.584Z,6.30
2022-10-19T01:24:40.798Z,6.30
2022-10-19T01:27:10.707Z,6.30
2022-10-19T01:29:56.958Z,6.20
2022-10-19T01:32:45.299Z,6.20
2022-10-19T01:35:24.778Z,6.20
2022-10-19T01:38:14.910Z,6.10
2022-10-19T01:40:41.715Z,6.10
2022-10-19T01:43:11.395Z,6.00
2022-10-19T01:45:53.552Z,6.00
2022-10-19T01:48:26.970Z,6.00
2022-10-19T01:51:01.629Z,6.00
2022-10-19T01:53:30.323Z,6.00
2022-10-19T01:55:57.553Z,6.00
2022-10-19T01:58:26.391Z,5.90
2022-10-19T02:00:54.000Z,5.90
2022-10-19T02:03:21.050Z,5.90
2022-10-19T02:05:48.312Z,5.90
2022-10-19T02:08:17.956Z,5.90
2022-10-19T02:10:45.137Z,5.80
2022-10-19T02:13:13.352Z,5.80
2022-10-19T02:15:42.885Z,5.80
2022-10-19T02:18:10.677Z,5.80
2022-10-19T02:20:37.556Z,5.80
2022-10-19T02:23:07.731Z,5.70
2022-10-19T02:25:34.862Z,5.80
2022-10-19T02:28:04.432Z,5.80
2022-10-19T02:30:31.284Z,5.80
2022-10-19T02:32:58.091Z,5.80
2022-10-19T02:35:24.974Z,5.80
2022-10-19T02:37:51.829Z,5.70
2022-10-19T02:40:18.721Z,5.80
2022-10-19T02:42:48.456Z,5.80
2022-10-19T02:45:21.628Z,5.80
2022-10-19T02:47:59.946Z,5.80
2022-10-19T02:50:26.875Z,5.70
2022-10-19T02:52:53.663Z,5.60
2022-10-19T02:55:20.481Z,5.60
2022-10-19T02:57:47.268Z,5.50
2022-10-19T03:00:14.671Z,5.50
2022-10-19T03:02:41.720Z,5.50
2022-10-19T03:05:09.120Z,5.60
2022-10-19T03:07:36.444Z,5.50
2022-10-19T03:10:03.650Z,5.50
2022-10-19T03:12:30.515Z,5.50
2022-10-19T03:14:57.290Z,5.50
2022-10-19T03:17:24.204Z,5.40
2022-10-19T03:19:50.991Z,5.40
2022-10-19T03:22:17.831Z,5.30
2022-10-19T03:24:44.665Z,5.40
2022-10-19T03:27:11.455Z,5.30
2022-10-19T03:29:38.318Z,5.40
2022-10-19T03:32:05.299Z,5.40
2022-10-19T03:34:32.143Z,5.40
2022-10-19T03:36:59.275Z,5.50
2022-10-19T03:39:26.259Z,5.50
2022-10-19T03:41:53.116Z,5.60
2022-10-19T03:44:19.965Z,5.60
2022-10-19T03:46:46.770Z,5.60
2022-10-19T03:49:15.003Z,5.60
2022-10-19T03:51:41.896Z,5.50
2022-10-19T03:54:11.924Z,5.50
2022-10-19T03:56:38.712Z,5.50
2022-10-19T03:59:06.012Z,5.50
2022-10-19T04:01:34.426Z,5.60
2022-10-19T04:04:02.025Z,5.50
2022-10-19T04:06:29.805Z,5.40
2022-10-19T04:08:56.897Z,5.50
2022-10-19T04:11:25.377Z,5.50
2022-10-19T04:13:52.712Z,5.40
2022-10-19T04:16:20.324Z,5.40
2022-10-19T04:18:47.600Z,5.40
2022-10-19T04:21:20.174Z,5.40
2022-10-19T04:23:47.015Z,5.40
2022-10-19T04:26:13.835Z,5.40
2022-10-19T04:28:40.683Z,5.30
2022-10-19T04:31:07.591Z,5.40
2022-10-19T04:33:34.891Z,5.40
2022-10-19T04:36:02.501Z,5.50
2022-10-19T04:38:29.875Z,5.50
2022-10-19T04:41:00.563Z,5.60
2022-10-19T04:43:27.405Z,5.60
2022-10-19T04:45:54.317Z,5.70
2022-10-19T04:48:21.178Z,5.70
2022-10-19T04:50:48.062Z,5.70
2022-10-19T04:53:20.069Z,5.80
2022-10-19T04:55:46.912Z,5.80
2022-10-19T04:58:13.719Z,5.80
2022-10-19T05:00:40.563Z,5.80
2022-10-19T05:03:07.412Z,5.70
2022-10-19T05:05:34.472Z,5.70
2022-10-19T05:08:01.609Z,5.70
2022-10-19T05:10:28.532Z,5.70
2022-10-19T05:12:55.482Z,5.70
2022-10-19T05:15:22.909Z,5.70
2022-10-19T05:17:49.740Z,5.80
2022-10-19T05:20:16.554Z,5.80
2022-10-19T05:22:43.376Z,5.80
2022-10-19T05:25:10.276Z,5.80
2022-10-19T05:27:37.241Z,5.80
2022-10-19T05:30:04.756Z,5.80
2022-10-19T05:32:31.677Z,5.80
2022-10-19T05:34:58.477Z,5.80
2022-10-19T05:37:25.808Z,5.80
2022-10-19T05:39:53.976Z,5.90
2022-10-19T05:42:20.800Z,5.90
2022-10-19T05:44:47.605Z,5.90
2022-10-19T05:47:14.496Z,5.90
2022-10-19T05:49:41.359Z,6.00
2022-10-19T05:52:08.166Z,6.00
2022-10-19T05:54:36.394Z,6.10
2022-10-19T05:57:03.304Z,6.20
2022-10-19T05:59:30.139Z,6.20
2022-10-19T06:01:57.011Z,6.30
2022-10-19T06:04:24.197Z,6.40
2022-10-19T06:06:51.009Z,6.40
2022-10-19T06:09:17.849Z,6.40
2022-10-19T06:11:44.831Z,6.50
2022-10-19T06:14:12.897Z,6.50
2022-10-19T06:16:39.765Z,6.50
2022-10-19T06:19:06.584Z,6.60
2022-10-19T06:21:34.364Z,6.60
2022-10-19T06:24:02.930Z,6.60
2022-10-19T06:26:30.957Z,6.60
2022-10-19T06:29:00.344Z,6.70
2022-10-19T06:31:31.404Z,6.70
2022-10-19T06:33:58.559Z,6.70
2022-10-19T06:36:27.453Z,6.80
2022-10-19T06:38:54.509Z,6.80
2022-10-19T06:41:21.321Z,6.80
2022-10-19T06:43:51.984Z,6.90
2022-10-19T06:46:20.589Z,6.90
2022-10-19T06:48:55.147Z,7.00
2022-10-19T06:51:22.404Z,6.90
2022-10-19T06:53:55.798Z,7.00
2022-10-19T06:56:27.260Z,7.00
2022-10-19T06:58:54.453Z,7.00
2022-10-19T07:01:21.725Z,6.90
2022-10-19T07:03:49.944Z,6.90
2022-10-19T07:06:16.761Z,6.90
2022-10-19T07:08:43.996Z,7.00
2022-10-19T07:11:12.575Z,7.00
2022-10-19T07:13:39.467Z,7.00
2022-10-19T07:16:08.129Z,7.00
2022-10-19T07:18:35.588Z,7.00
2022-10-19T07:21:03.958Z,7.00
2022-10-19T07:23:31.646Z,7.10
2022-10-19T07:26:03.711Z,7.10
2022-10-19T07:28:31.005Z,7.10
2022-10-19T07:30:57.788Z,7.10
2022-10-19T07:33:24.632Z,7.20
2022-10-19T07:35:58.176Z,7.20
2022-10-19T07:38:25.041Z,7.20
2022-10-19T07:40:51.859Z,7.20
2022-10-19T07:43:18.724Z,7.30
2022-10-19T07:45:45.547Z,7.30
2022-10-19T07:48:12.310Z,7.40
2022-10-19T07:50:39.099Z,7.40
2022-10-19T07:53:06.655Z,7.40
2022-10-19T07:55:34.094Z,7.50
2022-10-19T07:58:02.101Z,7.50
2022-10-19T08:00:32.521Z,7.50
2022-10-19T08:05:05.080Z,7.60
2022-10-19T08:10:00.950Z,7.70
2022-10-19T08:12:27.936Z,7.70
2022-10-19T08:14:54.897Z,7.70
2022-10-19T08:17:21.955Z,7.80
2022-10-19T08:19:48.912Z,7.90
2022-10-19T08:22:15.872Z,7.90
2022-10-19T08:24:42.786Z,8.00
2022-10-19T08:27:09.734Z,8.00
2022-10-19T08:29:36.674Z,8.10
2022-10-19T08:32:03.659Z,8.20
2022-10-19T08:34:30.575Z,8.20
2022-10-19T08:36:57.613Z,8.30
2022-10-19T08:39:24.743Z,8.40
2022-10-19T08:42:12.562Z,8.50
2022-10-19T08:45:03.199Z,8.60
2022-10-19T08:47:36.817Z,8.70
2022-10-19T08:50:24.406Z,8.70
2022-10-19T08:53:02.667Z,8.80
2022-10-19T08:55:59.787Z,8.90
2022-10-19T08:58:57.940Z,8.90
2022-10-19T09:01:43.660Z,9.10
2022-10-19T09:04:22.840Z,9.20
2022-10-19T09:07:13.165Z,9.30
2022-10-19T09:12:19.467Z,9.40
2022-10-19T09:15:03.757Z,9.60
2022-10-19T09:17:32.306Z,9.60
2022-10-19T09:20:20.877Z,9.70
2022-10-19T09:22:59.756Z,9.90
2022-10-19T09:25:29.153Z,9.90
2022-10-19T09:28:21.203Z,10.00
2022-10-19T09:30:52.155Z,10.10
2022-10-19T09:33:35.965Z,10.20
2022-10-19T09:36:05.694Z,10.20
2022-10-19T09:38:32.701Z,10.30
2022-10-19T09:41:13.748Z,10.30
2022-10-19T09:43:50.941Z,10.40
2022-10-19T09:46:51.831Z,10.50
2022-10-19T09:49:20.054Z,10.50
2022-10-19T09:51:52.276Z,10.60
2022-10-19T09:54:39.521Z,10.70
2022-10-19T09:57:06.413Z,10.80
2022-10-19T09:59:37.332Z,10.90
2022-10-19T10:02:18.894Z,10.90
2022-10-19T10:04:57.253Z,11.10
2022-10-19T10:07:33.143Z,11.50
2022-10-19T10:10:00.692Z,12.10
2022-10-19T10:18:05.425Z,12.60
2022-10-19T10:20:32.782Z,12.80
2022-10-19T10:23:02.722Z,13.00
2022-10-19T10:25:32.859Z,13.50
2022-10-19T10:28:21.643Z,13.80
2022-10-19T10:30:55.079Z,14.00
2022-10-19T10:33:40.735Z,14.00
2022-10-19T10:36:12.502Z,13.70
2022-10-19T10:38:47.077Z,13.40
2022-10-19T10:41:28.919Z,13.10
2022-10-19T10:44:04.838Z,13.00
2022-10-19T10:46:40.229Z,13.00
2022-10-19T10:49:16.189Z,13.10
2022-10-19T10:51:53.261Z,13.20
2022-10-19T10:54:31.215Z,13.30
2022-10-19T10:57:21.034Z,13.30
2022-10-19T10:59:56.835Z,13.30
2022-10-19T11:02:53.938Z,13.30
2022-10-19T11:05:29.865Z,13.30
2022-10-19T11:08:29.034Z,13.30
2022-10-19T11:11:22.184Z,13.30
2022-10-19T11:14:00.150Z,13.40
2022-10-19T11:16:42.125Z,13.50
2022-10-19T11:19:39.342Z,13.60
2022-10-19T11:22:31.947Z,13.70
2022-10-19T11:25:29.688Z,13.80
2022-10-19T11:28:15.176Z,13.80
2022-10-19T11:31:20.621Z,13.90
2022-10-19T11:34:11.552Z,14.00
2022-10-19T11:36:44.119Z,14.00
2022-10-19T11:39:35.370Z,14.10
2022-10-19T11:42:08.320Z,14.20
2022-10-19T11:44:38.386Z,14.30
2022-10-19T11:47:29.827Z,14.30
2022-10-19T11:50:31.925Z,14.20
2022-10-19T11:53:20.804Z,14.20
2022-10-19T11:56:39.200Z,14.30
2022-10-19T11:59:35.742Z,14.40
2022-10-19T12:02:30.439Z,14.50
2022-10-19T12:05:19.671Z,14.50
2022-10-19T12:08:01.723Z,14.60
2022-10-19T12:10:47.508Z,14.60
2022-10-19T12:13:20.546Z,14.60
2022-10-19T12:15:54.096Z,14.50
2022-10-19T12:18:44.704Z,14.60
2022-10-19T12:21:20.722Z,14.60
2022-10-19T12:23:49.693Z,14.70
2022-10-19T12:26:20.127Z,14.80
2022-10-19T12:29:00.524Z,14.80
2022-10-19T12:31:29.423Z,14.90
2022-10-19T12:34:33.743Z,14.90
2022-10-19T12:37:22.529Z,14.90
2022-10-19T12:40:05.379Z,14.80
2022-10-19T12:42:43.307Z,14.90
2022-10-19T12:45:26.047Z,15.00
2022-10-19T12:48:08.166Z,15.10
2022-10-19T12:50:50.892Z,15.00
2022-10-19T12:53:35.897Z,15.10
2022-10-19T12:56:24.672Z,15.00
2022-10-19T12:58:59.726Z,15.10
2022-10-19T13:01:43.946Z,15.10
2022-10-19T13:04:29.653Z,15.20
2022-10-19T13:06:56.593Z,15.30
2022-10-19T13:09:27.255Z,15.20
2022-10-19T13:12:19.671Z,15.30
2022-10-19T13:15:04.118Z,15.30
2022-10-19T13:17:35.010Z,15.30
2022-10-19T13:20:25.428Z,15.40
2022-10-19T13:23:03.492Z,15.40
2022-10-19T13:25:39.739Z,15.50
2022-10-19T13:28:06.605Z,15.50
2022-10-19T13:30:36.785Z,15.60
2022-10-19T13:33:24.461Z,15.60
2022-10-19T13:36:00.674Z,15.60
2022-10-19T13:38:37.901Z,15.70
2022-10-19T13:41:04.843Z,15.70
2022-10-19T13:43:43.952Z,15.70
2022-10-19T13:46:15.428Z,15.70
2022-10-19T13:49:01.383Z,15.70
2022-10-19T13:51:50.167Z,15.70
2022-10-19T13:54:22.864Z,15.60
2022-10-19T13:57:17.033Z,15.50
2022-10-19T14:00:02.622Z,15.50
2022-10-19T14:02:56.923Z,15.60
2022-10-19T14:05:48.558Z,15.60
2022-10-19T14:08:24.649Z,15.70
2022-10-19T14:11:01.403Z,15.70
2022-10-19T14:13:29.417Z,15.60
2022-10-19T14:15:58.137Z,15.50
2022-10-19T14:18:31.499Z,15.50
2022-10-19T14:21:17.487Z,15.50
2022-10-19T14:23:44.905Z,15.40
2022-10-19T14:26:20.245Z,15.40
2022-10-19T14:29:04.927Z,15.40
2022-10-19T14:31:42.848Z,15.40
2022-10-19T14:34:10.194Z,15.40
2022-10-19T14:36:38.198Z,15.30
2022-10-19T14:39:08.187Z,15.20
2022-10-19T14:41:48.641Z,15.20
2022-10-19T14:44:43.057Z,15.10
2022-10-19T14:47:41.352Z,15.20
2022-10-19T14:50:14.925Z,15.20
2022-10-19T14:53:01.883Z,15.20
2022-10-19T14:55:40.529Z,15.20
2022-10-19T14:58:43.717Z,15.00
2022-10-19T15:01:21.972Z,14.90
2022-10-19T15:03:54.813Z,14.90
2022-10-19T15:06:25.582Z,14.80
2022-10-19T15:08:59.023Z,14.70
2022-10-19T15:11:41.421Z,14.60
2022-10-19T15:14:32.050Z,14.60
2022-10-19T15:17:02.914Z,14.50
2022-10-19T15:19:32.027Z,14.40
2022-10-19T15:22:14.040Z,14.40
2022-10-19T15:25:21.667Z,14.30
2022-10-19T15:27:52.044Z,14.20
2022-10-19T15:30:37.835Z,14.10
2022-10-19T15:33:04.700Z,14.10
2022-10-19T15:35:33.824Z,14.00
2022-10-19T15:38:23.161Z,13.90
2022-10-19T15:40:57.517Z,13.90
2022-10-19T15:43:30.527Z,13.80
2022-10-19T15:46:02.886Z,13.80
2022-10-19T15:48:55.146Z,13.80
2022-10-19T15:51:25.701Z,13.70
2022-10-19T15:53:54.946Z,13.70
2022-10-19T15:56:23.369Z,13.60
2022-10-19T15:58:57.706Z,13.50
2022-10-19T16:01:30.261Z,13.40
2022-10-19T16:03:57.778Z,13.40
2022-10-19T16:06:26.465Z,13.30
2022-10-19T16:08:55.987Z,13.30
2022-10-19T16:11:24.302Z,13.20
2022-10-19T16:13:51.756Z,13.10
2022-10-19T16:16:30.881Z,12.90
2022-10-19T16:18:58.623Z,12.90
2022-10-19T16:21:30.410Z,12.80
2022-10-19T16:23:57.509Z,12.70
2022-10-19T16:26:26.328Z,12.70
2022-10-19T16:28:54.851Z,12.60
2022-10-19T16:31:22.875Z,12.50
2022-10-19T16:33:50.016Z,12.50
2022-10-19T16:36:20.183Z,12.40
2022-10-19T16:38:48.026Z,12.30
2022-10-19T16:41:15.704Z,12.30
2022-10-19T16:43:42.715Z,12.20
2022-10-19T16:46:09.690Z,12.10
2022-10-19T16:48:36.929Z,12.10
2022-10-19T16:51:06.751Z,12.00
2022-10-19T16:53:34.900Z,11.90
2022-10-19T16:56:06.948Z,11.90
2022-10-19T16:58:33.967Z,11.80
2022-10-19T17:01:10.418Z,11.70
2022-10-19T17:03:37.645Z,11.60
2022-10-19T17:06:06.314Z,11.50
2022-10-19T17:08:36.958Z,11.50
2022-10-19T17:11:19.402Z,11.50
2022-10-19T17:13:48.579Z,11.40
2022-10-19T17:16:17.025Z,11.30
2022-10-19T17:18:44.697Z,11.20
2022-10-19T17:21:20.870Z,11.20
2022-10-19T17:23:52.824Z,11.20
2022-10-19T17:26:25.585Z,11.20
2022-10-19T17:28:53.548Z,11.10
2022-10-19T17:31:20.587Z,11.10
2022-10-19T17:33:49.672Z,11.00
2022-10-19T17:36:19.905Z,11.00
2022-10-19T17:38:47.891Z,10.90
2022-10-19T17:41:19.859Z,10.80
2022-10-19T17:43:48.970Z,10.80
2022-10-19T17:46:18.781Z,10.70
2022-10-19T17:48:46.359Z,10.70
2022-10-19T17:51:22.010Z,10.60
2022-10-19T17:53:50.314Z,10.60
2022-10-19T17:56:20.137Z,10.50
2022-10-19T17:58:48.142Z,10.50
2022-10-19T18:01:16.934Z,10.50
2022-10-19T18:03:44.141Z,10.40
2022-10-19T18:06:11.220Z,10.30
2022-10-19T18:08:40.936Z,10.30
2022-10-19T18:11:11.831Z,10.20
2022-10-19T18:13:39.686Z,10.10
2022-10-19T18:16:11.133Z,10.00
2022-10-19T18:18:39.843Z,10.00
2022-10-19T18:21:10.016Z,9.90
2022-10-19T18:23:37.608Z,9.80
2022-10-19T18:26:17.118Z,9.80
2022-10-19T18:28:43.979Z,9.80
2022-10-19T18:31:16.587Z,9.80
2022-10-19T18:33:43.476Z,9.70
2022-10-19T18:36:11.131Z,9.70
2022-10-19T18:38:39.150Z,9.60
2022-10-19T18:41:08.598Z,9.50
2022-10-19T18:43:37.491Z,9.50
2022-10-19T18:46:05.026Z,9.40
2022-10-19T18:48:31.921Z,9.40
2022-10-19T18:51:04.304Z,9.30
2022-10-19T18:53:32.130Z,9.20
2022-10-19T18:56:08.334Z,9.20
2022-10-19T18:58:35.971Z,9.20
2022-10-19T19:01:05.680Z,9.20
2022-10-19T19:03:33.413Z,9.10
2022-10-19T19:06:05.684Z,9.10
2022-10-19T19:08:33.037Z,9.10
2022-10-19T19:11:11.330Z,9.10
2022-10-19T19:13:39.304Z,9.10
2022-10-19T19:16:07.675Z,9.10
2022-10-19T19:18:35.724Z,9.00
2022-10-19T19:21:04.091Z,8.90
2022-10-19T19:23:31.342Z,8.90
2022-10-19T19:25:58.336Z,8.80
2022-10-19T19:28:25.278Z,8.80
2022-10-19T19:30:52.237Z,8.80
2022-10-19T19:33:19.205Z,8.80
2022-10-19T19:35:47.628Z,8.80
2022-10-19T19:38:15.703Z,8.80
2022-10-19T19:40:45.470Z,8.70
2022-10-19T19:43:14.229Z,8.70
2022-10-19T19:45:42.507Z,8.70
2022-10-19T19:48:10.933Z,8.70
2022-10-19T19:50:38.654Z,8.60
2022-10-19T19:53:05.601Z,8.60
2022-10-19T19:55:38.118Z,8.60
2022-10-19T19:58:06.043Z,8.50
2022-10-19T20:00:32.976Z,8.40
2022-10-19T20:03:00.028Z,8.30
2022-10-19T20:05:28.389Z,8.20
2022-10-19T20:07:55.495Z,8.10
2022-10-19T20:10:22.567Z,8.10
2022-10-19T20:12:49.592Z,8.00
2022-10-19T20:15:18.217Z,7.90
2022-10-19T20:17:45.756Z,7.90
2022-10-19T20:20:13.372Z,7.80
2022-10-19T20:22:44.937Z,7.80
2022-10-19T20:25:11.891Z,7.80
2022-10-19T20:27:38.772Z,7.70
2022-10-19T20:30:06.515Z,7.60
2022-10-19T20:32:33.860Z,7.60
2022-10-19T20:35:01.141Z,7.60
2022-10-19T20:37:28.953Z,7.50
2022-10-19T20:39:58.477Z,7.50
2022-10-19T20:42:25.876Z,7.50
2022-10-19T20:44:54.957Z,7.50
2022-10-19T20:47:22.287Z,7.50
2022-10-19T20:49:49.255Z,7.40
2022-10-19T20:52:16.444Z,7.30
2022-10-19T20:54:43.347Z,7.30
2022-10-19T20:57:10.255Z,7.30
2022-10-19T20:59:38.688Z,7.20
2022-10-19T21:02:05.581Z,7.20
2022-10-19T21:04:32.508Z,7.20
2022-10-19T21:06:59.976Z,7.10
2022-10-19T21:09:26.976Z,7.10
2022-10-19T21:11:53.881Z,7.10
2022-10-19T21:14:26.934Z,7.00
2022-10-19T21:16:57.985Z,7.00
2022-10-19T21:19:26.433Z,7.00
2022-10-19T21:21:56.895Z,7.00
2022-10-19T21:24:26.728Z,6.90
2022-10-19T21:26:54.058Z,7.00
2022-10-19T21:29:21.052Z,7.00
2022-10-19T21:31:49.872Z,6.90
2022-10-19T21:34:25.790Z,6.90
2022-10-19T21:36:53.385Z,6.80
2022-10-19T21:39:20.442Z,6.80
2022-10-19T21:41:48.291Z,6.80
2022-10-19T21:44:17.323Z,6.80
2022-10-19T21:46:47.291Z,6.80
2022-10-19T21:49:14.432Z,6.70
2022-10-19T21:51:46.796Z,6.70
2022-10-19T21:54:16.490Z,6.60
2022-10-19T21:56:44.191Z,6.70
2022-10-19T21:59:12.100Z,6.70
2022-10-19T22:01:41.260Z,6.70
2022-10-19T22:04:12.731Z,6.60
2022-10-19T22:06:40.297Z,6.60
2022-10-19T22:09:08.056Z,6.60
2022-10-19T22:11:35.282Z,6.60
2022-10-19T22:14:03.395Z,6.60
2022-10-19T22:16:31.517Z,6.50
2022-10-19T22:18:58.677Z,6.50
2022-10-19T22:21:28.766Z,6.50
2022-10-19T22:24:01.379Z,6.50
2022-10-19T22:26:33.912Z,6.40
2022-10-19T22:29:01.441Z,6.40
2022-10-19T22:31:30.591Z,6.30
2022-10-19T22:33:59.387Z,6.30
2022-10-19T22:36:26.505Z,6.30
2022-10-19T22:38:53.433Z,6.30
2022-10-19T22:41:20.462Z,6.30
2022-10-19T22:43:47.349Z,6.30
2022-10-19T22:46:14.291Z,6.30
2022-10-19T22:48:41.240Z,6.30
2022-10-19T22:51:08.216Z,6.30
2022-10-19T22:53:35.162Z,6.20
2022-10-19T22:56:02.433Z,6.20
2022-10-19T22:58:29.357Z,6.20
2022-10-19T23:01:15.572Z,6.10
2022-10-19T23:03:42.831Z,6.10
2022-10-19T23:06:13.455Z,6.00
2022-10-19T23:08:40.412Z,6.00
2022-10-19T23:11:07.464Z,6.00
2022-10-19T23:13:34.441Z,5.90
2022-10-19T23:16:01.688Z,5.80
2022-10-19T23:18:36.845Z,5.80
2022-10-19T23:21:06.747Z,5.90
2022-10-19T23:23:34.565Z,6.00
2022-10-19T23:26:07.999Z,5.90
2022-10-19T23:28:36.697Z,5.90
2022-10-19T23:31:11.454Z,5.80
2022-10-19T23:33:39.149Z,5.80
2022-10-19T23:36:08.867Z,5.80
2022-10-19T23:38:36.674Z,5.80
2022-10-19T23:41:03.810Z,5.80
2022-10-19T23:43:31.193Z,5.80
2022-10-19T23:45:58.452Z,5.80
2022-10-19T23:48:25.732Z,5.80
2022-10-19T23:51:01.126Z,5.80
2022-10-19T23:53:30.026Z,5.90
2022-10-19T23:56:01.480Z,5.80
2022-10-19T23:58:28.852Z,5.90
